Time;durP1;ratioP1;P1;durP2;ratioP2;P2;SDS_P1;SDS_P2;PMS_P1;PMS_P2;Temp;Humidity;BMP_temperature;BMP_pressure;BME280_temperature;BME280_humidity;BME280_pressure;Samples;Min_cycle;Max_cycle;Signal;HPM_P1;HPM_P2
2023/01/26 00:01:22;;;;;;;11.48;7.75;;;;;;;19.01;43.38;101367.56;5034450;28;20056;-60
2023/01/26 00:03:50;;;;;;;9.02;7.82;;;;;;;19.01;43.36;101372.94;5034206;28;20049;-60
2023/01/26 00:06:19;;;;;;;9.43;7.60;;;;;;;19.02;42.94;101361.22;5034383;28;20066;-60
2023/01/26 00:08:49;;;;;;;9.65;7.05;;;;;;;19.02;43.73;101366.59;5033859;28;20506;-59
2023/01/26 00:11:23;;;;;;;11.68;8.77;;;;;;;19.02;43.64;101366.59;5033550;28;20068;-60
2023/01/26 00:13:50;;;;;;;9.15;7.65;;;;;;;19.01;43.46;101359.50;5034526;28;20506;-60
2023/01/26 00:16:17;;;;;;;8.63;7.72;;;;;;;19.01;43.44;101364.88;5034454;28;20057;-60
2023/01/26 03:29:58;;;;;;;8.55;6.78;;;;;;;18.82;44.00;101209.81;5023392;28;20499;-60
2023/01/26 03:32:25;;;;;;;8.10;6.85;;;;;;;18.82;44.24;101204.47;5034345;28;20061;-60
2023/01/26 03:34:55;;;;;;;7.78;6.53;;;;;;;18.83;44.03;101216.03;5034075;28;20057;-60
2023/01/26 03:37:25;;;;;;;7.55;5.95;;;;;;;18.82;44.04;101206.28;5033953;28;20492;-60
2023/01/26 03:56:43;;;;;;;7.65;6.63;;;;;;;18.81;44.05;101194.72;5033287;28;20054;-56
2023/01/26 03:59:19;;;;;;;6.93;6.22;;;;;;;18.82;44.11;101188.38;5033750;28;20049;-60
2023/01/26 04:10:11;;;;;;;6.35;5.75;;;;;;;18.80;44.19;101184.97;5033611;28;20360;-54
2023/01/26 04:12:39;;;;;;;8.70;6.60;;;;;;;18.81;44.05;101183.13;5035116;28;20064;-55
2023/01/26 04:23:42;;;;;;;8.73;6.10;;;;;;;18.80;44.53;101178.72;5032835;28;20053;-54
2023/01/26 04:26:09;;;;;;;7.72;6.40;;;;;;;18.80;44.30;101171.56;5034396;28;20048;-55
2023/01/26 04:28:37;;;;;;;7.45;6.50;;;;;;;18.80;44.25;101170.69;5033090;28;20491;-52
2023/01/26 04:31:05;;;;;;;8.25;6.55;;;;;;;18.80;44.17;101168.00;5032769;28;20479;-54
2023/01/26 04:33:35;;;;;;;8.23;6.70;;;;;;;18.78;44.40;101162.75;5032798;28;20053;-53
2023/01/26 04:36:04;;;;;;;8.55;6.68;;;;;;;18.79;44.34;101167.13;5032882;28;20050;-53
2023/01/26 04:38:32;;;;;;;8.13;6.50;;;;;;;18.78;44.29;101160.94;5034873;28;20041;-53
2023/01/26 04:40:59;;;;;;;7.18;5.65;;;;;;;18.78;44.38;101160.94;5032931;28;20060;-55
2023/01/26 04:43:28;;;;;;;6.80;5.45;;;;;;;18.78;44.20;101158.25;5033111;28;20053;-54
2023/01/26 04:46:00;;;;;;;7.18;6.15;;;;;;;18.79;44.25;101159.09;5032684;28;20423;-54
2023/01/26 04:48:29;;;;;;;;;;;;;;;18.78;44.12;101150.19;5033610;28;20505;-60
2023/01/26 04:50:59;;;;;;;7.85;6.25;;;;;;;18.78;44.25;101152.03;5032692;28;19921;-60
2023/01/26 04:53:26;;;;;;;8.27;5.97;;;;;;;18.78;44.22;101154.72;5033914;28;20045;-60
2023/01/26 04:55:54;;;;;;;9.05;7.13;;;;;;;18.78;44.20;101152.88;5032944;28;20511;-60
2023/01/26 04:58:22;;;;;;;6.55;5.75;;;;;;;18.77;44.28;101147.66;5034079;28;20037;-55
2023/01/26 05:00:54;;;;;;;8.60;6.55;;;;;;;18.77;44.25;101148.50;5033985;28;20072;-54
2023/01/26 05:03:22;;;;;;;8.88;6.38;;;;;;;18.78;44.29;101149.34;5033398;28;20056;-54
2023/01/26 05:05:52;;;;;;;6.78;6.00;;;;;;;18.77;44.23;101145.81;5032687;28;20064;-55
2023/01/26 05:08:22;;;;;;;7.50;6.72;;;;;;;18.78;44.26;101146.66;5032287;28;20050;-58
2023/01/26 05:10:51;;;;;;;6.43;5.55;;;;;;;18.77;44.13;101137.78;5032539;28;20408;-53
2023/01/26 05:13:24;;;;;;;6.18;5.50;;;;;;;18.77;44.30;101134.25;5031640;28;20057;-56
2023/01/26 05:16:12;;;;;;;8.70;5.65;;;;;;;18.77;44.45;101142.28;5040588;28;20056;-55
2023/01/26 05:18:58;;;;;;;7.55;6.10;;;;;;;18.77;44.22;101147.66;5040355;28;20581;-53
2023/01/26 05:21:46;;;;;;;6.40;5.60;;;;;;;18.77;44.28;101148.50;5033374;28;20065;-55
2023/01/26 05:24:13;;;;;;;6.47;5.72;;;;;;;18.77;44.20;101144.97;5031991;28;20064;-55
2023/01/26 05:26:40;;;;;;;8.55;6.15;;;;;;;18.77;44.28;101147.66;5033605;28;20060;-54
2023/01/26 05:29:12;;;;;;;10.07;5.35;;;;;;;18.76;44.44;101149.47;5033852;28;20400;-52
2023/01/26 05:31:40;;;;;;;6.43;5.68;;;;;;;18.76;44.28;101145.94;5032465;28;20061;-54
2023/01/26 05:34:07;;;;;;;7.57;5.78;;;;;;;18.76;44.43;101133.38;5032565;28;20129;-52
2023/01/26 05:36:36;;;;;;;6.07;5.13;;;;;;;18.77;44.36;101137.78;5032030;28;20511;-54
2023/01/26 05:39:04;;;;;;;6.55;5.35;;;;;;;18.76;44.36;101136.06;5031983;28;20052;-54
2023/01/26 05:41:31;;;;;;;7.07;5.75;;;;;;;18.76;44.37;101137.91;5033317;28;20056;-51
2023/01/26 05:44:23;;;;;;;6.75;5.70;;;;;;;18.76;44.22;101132.53;5041753;28;20361;-52
2023/01/26 05:46:56;;;;;;;5.88;5.07;;;;;;;18.75;44.23;101137.03;5031907;28;20049;-55
2023/01/26 05:49:24;;;;;;;7.30;5.25;;;;;;;18.76;44.34;101135.22;5031976;28;20057;-59
2023/01/26 05:51:53;;;;;;;7.38;5.68;;;;;;;18.75;44.20;101131.66;5031747;28;20419;-59
2023/01/26 05:54:20;;;;;;;6.60;5.28;;;;;;;18.74;43.95;101135.31;5031904;28;20068;-59
2023/01/26 05:56:48;;;;;;;6.97;5.50;;;;;;;18.74;44.13;101135.31;5031701;28;20045;-59
2023/01/26 05:59:16;;;;;;;8.35;5.90;;;;;;;18.74;44.13;101131.78;5031785;28;20407;-59
2023/01/26 06:01:43;;;;;;;6.80;5.43;;;;;;;18.74;44.18;101138.00;5031863;28;20104;-59
2023/01/26 06:04:11;;;;;;;7.38;5.72;;;;;;;18.73;44.11;101138.97;5031842;28;20072;-59
2023/01/26 06:06:45;;;;;;;6.53;5.50;;;;;;;18.74;44.19;101139.84;5031400;28;20045;-59
2023/01/26 06:09:22;;;;;;;7.50;6.10;;;;;;;18.75;44.20;101141.53;5031881;28;20050;-59
2023/01/26 06:12:17;;;;;;;6.95;5.30;;;;;;;18.74;44.12;101143.38;5031366;28;20045;-59
2023/01/26 06:14:57;;;;;;;8.60;6.18;;;;;;;18.74;44.08;101135.31;5039688;28;20068;-59
2023/01/26 06:17:37;;;;;;;8.38;5.80;;;;;;;18.74;44.25;101132.63;5031640;28;20053;-61
2023/01/26 06:20:08;;;;;;;6.63;5.30;;;;;;;18.73;44.12;101130.94;5031707;28;20072;-53
2023/01/26 06:22:36;;;;;;;6.95;5.80;;;;;;;18.73;44.28;101130.94;5031645;28;20056;-54
2023/01/26 06:25:04;;;;;;;5.88;5.28;;;;;;;18.73;44.36;101128.25;5031829;28;20049;-51
2023/01/26 06:27:31;;;;;;;6.25;4.78;;;;;;;18.74;44.32;101129.97;5036587;28;20057;-53
2023/01/26 06:30:04;;;;;;;8.60;5.55;;;;;;;18.74;44.26;101129.09;5036647;28;20056;-53
2023/01/26 06:32:31;;;;;;;7.13;5.13;;;;;;;18.72;44.23;101120.34;5035124;28;20053;-54
2023/01/26 06:34:59;;;;;;;7.13;6.00;;;;;;;18.71;44.27;101122.16;5036456;28;20057;-54
2023/01/26 06:37:26;;;;;;;7.70;6.25;;;;;;;18.73;44.27;101125.56;5035107;28;20499;-51
2023/01/26 06:39:54;;;;;;;5.95;5.25;;;;;;;18.72;44.16;101114.97;5035279;28;20052;-54
2023/01/26 06:42:22;;;;;;;6.03;5.15;;;;;;;18.72;44.19;101114.97;5035122;28;20057;-52
2023/01/26 06:44:50;;;;;;;7.70;5.70;;;;;;;18.72;44.04;101106.94;5034789;28;20064;-53
2023/01/26 06:47:17;;;;;;;6.57;4.90;;;;;;;18.71;44.08;101102.53;5036312;28;20052;-53
2023/01/26 06:49:45;;;;;;;7.65;5.50;;;;;;;18.70;44.03;101123.13;5035391;28;20053;-53
2023/01/26 06:52:22;;;;;;;6.22;4.72;;;;;;;18.72;44.14;101131.06;5035243;28;20053;-50
2023/01/26 06:54:52;;;;;;;6.22;5.35;;;;;;;18.69;44.16;101129.44;5034687;28;20053;-54
2023/01/26 06:57:22;;;;;;;7.03;5.40;;;;;;;18.70;44.25;101131.16;5036049;28;20042;-52
2023/01/26 06:59:49;;;;;;;7.43;5.65;;;;;;;18.70;44.38;101133.00;5036314;28;20038;-58
2023/01/26 07:02:32;;;;;;;6.80;5.23;;;;;;;18.70;44.28;101123.13;5034686;28;20053;-58
2023/01/26 07:04:59;;;;;;;6.07;4.85;;;;;;;18.69;44.33;101124.06;5035848;28;20404;-58
2023/01/26 07:07:26;;;;;;;5.95;4.95;;;;;;;18.69;44.33;101116.03;5035727;28;20068;-59
2023/01/26 07:09:54;;;;;;;8.35;5.30;;;;;;;18.70;44.39;101133.84;5035762;28;20045;-53
2023/01/26 07:12:21;;;;;;;6.65;5.30;;;;;;;18.69;44.19;101131.28;5035906;28;20369;-52
2023/01/26 07:14:50;;;;;;;5.95;5.35;;;;;;;18.68;44.30;101132.25;5035691;28;20056;-53
2023/01/26 07:17:18;;;;;;;6.10;5.18;;;;;;;18.69;44.43;101136.63;5035740;28;20476;-54
2023/01/26 07:19:45;;;;;;;6.95;5.43;;;;;;;18.69;44.40;101137.47;5035777;28;20049;-54
2023/01/26 07:22:13;;;;;;;6.65;5.40;;;;;;;18.68;44.41;101137.63;5035513;28;20357;-52
2023/01/26 07:24:41;;;;;;;8.93;5.78;;;;;;;18.68;44.13;101146.50;5035331;28;20401;-52
2023/01/26 07:27:08;;;;;;;5.97;4.53;;;;;;;18.69;44.18;101139.31;5034468;28;20053;-52
2023/01/26 07:29:35;;;;;;;6.20;5.35;;;;;;;18.69;44.20;101142.84;5035277;28;20049;-54
2023/01/26 07:32:02;;;;;;;5.32;4.45;;;;;;;18.69;44.22;101139.31;5035475;28;20480;-53
2023/01/26 07:34:30;;;;;;;6.88;5.28;;;;;;;18.68;44.39;101133.09;5035284;28;20496;-53
2023/01/26 07:36:57;;;;;;;6.15;4.97;;;;;;;18.68;44.31;101132.25;5034312;28;20052;-54
2023/01/26 07:39:25;;;;;;;6.13;5.40;;;;;;;18.69;44.45;101139.31;5035396;28;20388;-58
2023/01/26 07:41:53;;;;;;;7.30;5.10;;;;;;;18.68;44.44;101141.16;5035204;28;20399;-58
2023/01/26 07:44:42;;;;;;;6.47;5.63;;;;;;;18.69;44.42;101152.72;5034935;28;20049;-58
2023/01/26 07:47:10;;;;;;;7.50;5.70;;;;;;;18.68;44.44;101146.50;5035233;28;20053;-58
2023/01/26 07:49:37;;;;;;;7.32;6.00;;;;;;;18.68;44.49;101146.50;5035205;28;20459;-58
2023/01/26 07:52:05;;;;;;;7.72;5.55;;;;;;;18.68;44.61;101162.59;5035084;28;20501;-59
2023/01/26 07:54:33;;;;;;;7.70;4.90;;;;;;;18.71;44.36;101148.13;5053587;28;20072;-59
2023/01/26 07:57:00;;;;;;;8.18;5.13;;;;;;;18.73;44.76;101156.91;5054699;28;20052;-58
2023/01/26 07:59:27;;;;;;;8.30;5.85;;;;;;;18.74;44.99;101145.19;5054886;28;20060;-49
2023/01/26 08:01:55;;;;;;;7.88;5.30;;;;;;;18.75;44.94;101142.38;5054597;28;20052;-52
2023/01/26 08:04:22;;;;;;;8.70;6.47;;;;;;;18.75;42.78;101139.69;5054732;28;20045;-52
2023/01/26 08:06:52;;;;;;;12.68;8.55;;;;;;;18.72;40.58;101139.13;5053794;28;20049;-48
2023/01/26 08:09:20;;;;;;;12.07;9.32;;;;;;;18.69;39.18;101142.84;5054357;28;20044;-50
2023/01/26 08:11:47;;;;;;;12.95;9.10;;;;;;;18.68;38.81;101141.16;5054315;28;20053;-49
2023/01/26 08:14:14;;;;;;;13.60;10.30;;;;;;;18.64;37.68;101138.84;5049761;28;20060;-52
2023/01/26 08:16:44;;;;;;;16.27;11.07;;;;;;;18.60;37.46;101134.69;5034361;28;20505;-51
2023/01/26 08:19:11;;;;;;;15.45;10.40;;;;;;;18.57;37.88;101137.59;5034074;28;20069;-48
2023/01/26 08:21:38;;;;;;;13.18;8.77;;;;;;;18.56;40.27;101136.75;5033966;28;20511;-49
2023/01/26 08:24:06;;;;;;;13.02;9.88;;;;;;;18.58;37.92;101139.28;5034170;28;20068;-49
2023/01/26 08:26:34;;;;;;;13.80;10.35;;;;;;;18.54;37.37;101130.63;5034234;28;20049;-53
2023/01/26 08:29:01;;;;;;;13.07;10.43;;;;;;;18.52;37.02;101137.97;5034079;28;20049;-61
2023/01/26 08:31:29;;;;;;;17.00;11.15;;;;;;;18.51;37.00;101136.22;5033860;28;20052;-61
2023/01/26 08:33:56;;;;;;;16.17;10.30;;;;;;;18.50;37.45;101138.06;5033948;28;20060;-61
2023/01/26 08:36:24;;;;;;;13.18;9.93;;;;;;;18.51;37.65;101139.78;5032690;28;20056;-60
2023/01/26 08:38:53;;;;;;;14.98;11.23;;;;;;;18.51;37.20;101137.09;5034041;28;20048;-56
2023/01/26 08:41:20;;;;;;;14.60;11.27;;;;;;;18.49;36.93;101133.69;5033726;28;20045;-52
2023/01/26 08:43:47;;;;;;;18.10;11.48;;;;;;;18.49;36.98;101136.34;5033769;28;20384;-48
2023/01/26 08:46:15;;;;;;;14.20;10.82;;;;;;;18.47;36.81;101122.22;5032752;28;20053;-53
2023/01/26 08:48:43;;;;;;;12.55;11.23;;;;;;;18.48;36.99;101121.25;5033708;28;20475;-51
2023/01/26 08:51:10;;;;;;;16.15;11.73;;;;;;;18.49;36.83;101124.78;5033448;28;20045;-52
2023/01/26 08:53:37;;;;;;;20.58;12.48;;;;;;;18.47;36.98;101121.34;5033823;28;20045;-54
2023/01/26 08:56:07;;;;;;;15.63;11.18;;;;;;;18.47;36.77;101121.34;5033651;28;20053;-53
2023/01/26 08:58:35;;;;;;;12.32;10.07;;;;;;;18.48;37.07;101123.94;5033839;28;20041;-61
2023/01/26 09:01:07;;;;;;;12.88;10.88;;;;;;;18.48;37.22;101123.09;5033643;28;20045;-57
2023/01/26 09:03:35;;;;;;;12.07;9.65;;;;;;;18.50;37.55;101118.44;5033595;28;20053;-48
2023/01/26 09:06:04;;;;;;;12.70;10.18;;;;;;;18.52;37.47;101120.03;5033708;28;20054;-47
2023/01/26 09:08:31;;;;;;;10.93;8.90;;;;;;;18.52;36.91;101117.34;5033107;28;20072;-53
2023/01/26 09:10:59;;;;;;;15.60;8.63;;;;;;;18.53;36.44;101120.88;5032760;28;20053;-53
2023/01/26 09:13:27;;;;;;;9.60;8.30;;;;;;;18.55;37.95;101113.56;5032916;28;20045;-56
2023/01/26 09:15:54;;;;;;;12.65;7.95;;;;;;;18.61;38.87;101118.47;5032019;28;20041;-55
2023/01/26 09:18:21;;;;;;;9.43;7.00;;;;;;;18.67;39.56;101122.47;5033312;28;20392;-56
2023/01/26 09:20:50;;;;;;;8.90;7.50;;;;;;;18.74;39.81;101118.38;5032515;28;20384;-57
2023/01/26 09:23:17;;;;;;;8.82;6.30;;;;;;;18.78;40.02;101120.69;5031077;28;20056;-56
2023/01/26 09:25:45;;;;;;;8.25;6.90;;;;;;;18.82;39.64;101125.81;5032773;28;20045;-59
2023/01/26 09:28:12;;;;;;;10.60;6.53;;;;;;;18.84;40.22;101123.84;5032772;28;20052;-57
2023/01/26 09:30:39;;;;;;;8.23;6.68;;;;;;;18.87;40.14;101124.47;5031300;28;20053;-50
2023/01/26 09:33:07;;;;;;;7.65;5.97;;;;;;;18.89;40.03;101117.19;5031912;28;20400;-46
2023/01/26 09:35:34;;;;;;;8.10;5.97;;;;;;;18.90;40.23;101124.25;5031921;28;20054;-49
2023/01/26 09:38:02;;;;;;;8.18;5.40;;;;;;;18.92;40.41;101126.78;5031933;28;20049;-52
2023/01/26 09:40:45;;;;;;;8.13;6.50;;;;;;;18.94;40.28;101116.81;5032090;28;20504;-59
2023/01/26 09:43:21;;;;;;;9.03;6.17;;;;;;;18.96;40.34;101128.28;5046020;28;20402;-58
2023/01/26 09:46:10;;;;;;;7.60;5.93;;;;;;;18.96;40.15;101130.97;5051885;28;20048;-55
2023/01/26 09:48:51;;;;;;;7.78;5.53;;;;;;;18.97;40.52;101116.56;5051963;28;20037;-46
2023/01/26 09:51:28;;;;;;;8.60;5.75;;;;;;;18.98;40.04;101126.31;5051416;28;20044;-48
2023/01/26 09:54:20;;;;;;;8.55;6.20;;;;;;;18.99;39.76;101126.19;5051583;28;20056;-48
2023/01/26 09:56:47;;;;;;;8.00;5.93;;;;;;;19.01;40.61;101109.97;5051478;28;20053;-46
2023/01/26 09:59:24;;;;;;;8.07;5.43;;;;;;;19.04;40.57;101120.47;5046195;28;20049;-57
2023/01/26 10:02:14;;;;;;;7.20;6.00;;;;;;;19.03;39.62;101113.38;5035249;28;20049;-59
2023/01/26 10:04:45;;;;;;;10.40;6.03;;;;;;;19.02;39.35;101111.69;5037040;28;20061;-56
2023/01/26 10:07:14;;;;;;;10.18;5.70;;;;;;;19.01;39.75;101109.97;5036016;28;20053;-50
2023/01/26 10:09:50;;;;;;;10.75;5.15;;;;;;;19.01;39.80;101109.97;5036148;28;20057;-49
2023/01/26 10:12:23;;;;;;;7.93;5.72;;;;;;;19.03;40.34;101108.00;5035813;28;20041;-46
2023/01/26 10:15:26;;;;;;;10.65;6.03;;;;;;;19.05;40.38;101108.75;5035382;28;20459;-50
2023/01/26 10:17:55;;;;;;;8.57;5.20;;;;;;;19.05;40.03;101100.72;5035787;28;20060;-53
2023/01/26 10:20:44;;;;;;;11.23;6.35;;;;;;;19.01;37.24;101100.09;5037031;28;20045;-59
2023/01/26 10:23:15;;;;;;;12.35;7.32;;;;;;;18.87;34.52;101094.13;5056115;28;20487;-50
2023/01/26 10:25:47;;;;;;;9.00;6.38;;;;;;;18.86;37.66;101089.72;5056348;28;20044;-52
2023/01/26 10:28:17;;;;;;;10.38;5.68;;;;;;;18.87;38.94;101089.59;5056542;28;20411;-48
2023/01/26 10:30:47;;;;;;;9.38;5.28;;;;;;;18.90;39.32;101089.34;5055829;28;20434;-50
2023/01/26 10:33:26;;;;;;;9.13;5.45;;;;;;;18.92;39.61;101084.75;5056128;28;20395;-50
2023/01/26 10:35:53;;;;;;;11.15;6.13;;;;;;;18.94;39.80;101084.59;5056287;28;20049;-51
2023/01/26 10:38:33;;;;;;;8.05;5.22;;;;;;;18.97;39.74;101093.25;5055036;28;20049;-48
2023/01/26 10:41:05;;;;;;;9.52;5.82;;;;;;;18.96;39.95;101080.00;5056148;28;20075;-48
2023/01/26 10:43:40;;;;;;;11.85;6.03;;;;;;;18.98;40.00;101083.38;5056120;28;20045;-49
2023/01/26 10:46:30;;;;;;;7.65;5.20;;;;;;;19.00;39.99;101086.81;5056077;28;20045;-49
2023/01/26 10:49:18;;;;;;;6.63;4.95;;;;;;;18.98;39.82;101073.50;5056289;28;20060;-47
2023/01/26 10:52:13;;;;;;;6.28;4.72;;;;;;;19.01;40.19;101072.41;5055807;28;20045;-48
2023/01/26 10:54:42;;;;;;;10.65;5.10;;;;;;;19.02;40.24;101064.22;5055918;28;20045;-49
2023/01/26 10:57:17;;;;;;;9.25;5.07;;;;;;;19.03;40.52;101063.25;5055873;28;20399;-50
2023/01/26 10:59:53;;;;;;;12.40;5.20;;;;;;;19.03;39.68;101059.72;5056156;28;20502;-49
2023/01/26 11:02:29;;;;;;;12.05;4.85;;;;;;;19.00;38.92;101062.66;5055519;28;20044;-48
2023/01/26 11:05:19;;;;;;;12.35;7.68;;;;;;;18.85;35.82;101056.69;5054194;28;20060;-49
2023/01/26 11:07:49;;;;;;;10.38;5.82;;;;;;;18.83;38.85;101055.09;5055612;28;20048;-51
2023/01/26 11:10:29;;;;;;;6.53;5.25;;;;;;;18.83;39.31;101055.09;5054771;28;20049;-50
2023/01/26 11:13:18;;;;;;;9.18;5.53;;;;;;;18.85;39.59;101053.16;5035607;28;20404;-50
2023/01/26 11:15:48;;;;;;;7.93;5.10;;;;;;;18.86;39.71;101044.13;5036904;28;20044;-55
2023/01/26 11:18:21;;;;;;;8.35;5.68;;;;;;;18.88;39.89;101036.78;5055642;28;20052;-49
2023/01/26 11:20:58;;;;;;;9.90;5.25;;;;;;;18.90;39.85;101027.66;5054032;28;20407;-53
2023/01/26 11:23:39;;;;;;;8.57;5.13;;;;;;;18.93;40.10;101031.94;5055308;28;20049;-48
2023/01/26 11:26:34;;;;;;;7.30;4.90;;;;;;;18.92;39.85;101014.13;5055199;28;20045;-49
2023/01/26 11:29:16;;;;;;;6.90;4.63;;;;;;;18.95;40.43;101009.34;5055233;28;20372;-48
2023/01/26 11:32:01;;;;;;;6.75;4.97;;;;;;;18.96;44.11;101003.03;5054896;28;20043;-46
2023/01/26 11:34:59;;;;;;;10.05;4.97;;;;;;;18.96;47.67;100999.50;5055184;28;20052;-47
2023/01/26 11:37:46;;;;;;;6.50;5.20;;;;;;;18.93;49.45;100995.22;5055220;28;20082;-52
2023/01/26 11:40:27;;;;;;;7.13;4.95;;;;;;;18.93;50.28;100979.13;5054475;28;20049;-47
2023/01/26 11:43:07;;;;;;;8.40;6.07;;;;;;;18.91;50.02;100983.75;5054912;28;20041;-52
2023/01/26 11:45:59;;;;;;;7.03;5.00;;;;;;;18.89;51.37;100979.50;5054778;28;20044;-52
2023/01/26 11:48:27;;;;;;;9.32;5.32;;;;;;;18.88;51.52;100967.94;5055282;28;20041;-55
2023/01/26 11:51:04;;;;;;;6.32;4.70;;;;;;;18.87;51.92;100968.03;5054873;28;20044;-49
2023/01/26 11:54:00;;;;;;;8.35;4.57;;;;;;;18.87;51.39;100957.31;5053885;28;20053;-46
2023/01/26 11:56:31;;;;;;;7.97;5.38;;;;;;;18.87;52.22;100962.69;5054722;28;20059;-48
2023/01/26 11:59:05;;;;;;;6.95;5.07;;;;;;;18.86;51.93;100963.66;5051964;28;20049;-51
2023/01/26 12:01:40;;;;;;;7.82;5.05;;;;;;;18.86;52.26;100956.47;5054093;28;20051;-51
2023/01/26 12:04:18;;;;;;;7.38;5.55;;;;;;;18.86;52.26;100955.59;5054633;28;20399;-49
2023/01/26 12:07:11;;;;;;;6.15;4.97;;;;;;;18.84;53.31;100941.47;5054268;28;20051;-55
2023/01/26 12:09:45;;;;;;;7.53;4.85;;;;;;;18.84;53.32;100938.78;5054937;28;20045;-49
2023/01/26 12:12:41;;;;;;;6.32;4.47;;;;;;;18.83;53.14;100940.59;5053241;28;20053;-51
2023/01/26 12:15:14;;;;;;;7.72;5.20;;;;;;;18.83;55.12;100929.03;5054376;28;20049;-50
2023/01/26 12:18:00;;;;;;;6.15;4.28;;;;;;;18.82;55.54;100925.50;5054378;28;20383;-53
2023/01/26 12:20:36;;;;;;;8.13;4.70;;;;;;;18.83;54.92;100929.88;5054122;28;20045;-50
2023/01/26 12:23:09;;;;;;;7.15;4.72;;;;;;;18.84;55.56;100920.00;5053096;28;20483;-53
2023/01/26 12:25:40;;;;;;;5.93;4.70;;;;;;;18.85;55.74;100916.38;5054311;28;20052;-54
2023/01/26 12:28:51;;;;;;;9.23;5.03;;;;;;;18.85;55.58;100916.38;5054096;28;20111;-56
2023/01/26 12:31:33;;;;;;;7.25;4.35;;;;;;;18.86;56.81;100915.38;5051984;28;20466;-50
2023/01/26 12:34:00;;;;;;;8.88;4.22;;;;;;;18.84;57.00;100904.78;5051934;28;20088;-54
2023/01/26 12:36:41;;;;;;;9.90;6.00;;;;;;;18.82;50.40;100903.19;5051807;28;20055;-53
2023/01/26 12:39:36;;;;;;;10.07;7.40;;;;;;;18.48;39.15;100898.75;5051986;28;20049;-50
2023/01/26 12:42:20;;;;;;;11.77;7.15;;;;;;;18.28;40.80;100894.13;5051789;28;20056;-54
2023/01/26 12:44:58;;;;;;;11.18;7.55;;;;;;;18.07;39.76;100896.72;5051349;28;20180;-53
2023/01/26 12:47:43;;;;;;;11.15;6.88;;;;;;;17.92;41.43;100887.22;5051591;28;20057;-49
2023/01/26 12:50:15;;;;;;;8.68;6.40;;;;;;;17.84;40.77;100869.06;5051411;28;20056;-50
2023/01/26 12:52:52;;;;;;;14.52;9.90;;;;;;;17.71;38.43;100871.81;5051651;28;20412;-53
2023/01/26 12:55:25;;;;;;;11.95;8.60;;;;;;;17.55;38.79;100860.63;5051193;28;20049;-49
2023/01/26 12:57:54;;;;;;;13.45;8.00;;;;;;;17.39;37.70;100854.75;5051565;28;20049;-51
2023/01/26 13:00:28;;;;;;;11.65;7.03;;;;;;;17.34;41.48;100859.56;5051677;28;20057;-52
2023/01/26 13:03:01;;;;;;;10.00;7.43;;;;;;;17.29;39.40;100852.75;5050955;28;20049;-47
2023/01/26 13:05:34;;;;;;;9.40;5.88;;;;;;;17.39;44.50;100850.25;5051250;28;20052;-49
2023/01/26 13:08:40;;;;;;;8.27;5.28;;;;;;;17.59;48.50;100846.03;5053339;28;20065;-47
2023/01/26 13:11:08;;;;;;;8.07;5.40;;;;;;;17.72;49.84;100846.75;5053627;28;20383;-53
2023/01/26 13:13:56;;;;;;;8.20;5.28;;;;;;;17.85;49.35;100843.97;5053242;28;20045;-52
2023/01/26 13:16:23;;;;;;;9.93;5.28;;;;;;;17.94;50.97;100843.25;5053316;28;20052;-57
2023/01/26 13:18:55;;;;;;;9.88;4.90;;;;;;;18.02;51.48;100839.94;5053293;28;20052;-50
2023/01/26 13:21:37;;;;;;;5.53;4.53;;;;;;;18.11;51.91;100839.25;5053340;28;20075;-49
2023/01/26 13:24:17;;;;;;;6.90;5.00;;;;;;;18.17;52.86;100840.56;5052846;28;20049;-49
2023/01/26 13:26:45;;;;;;;5.80;4.70;;;;;;;18.21;53.09;100839.31;5052975;28;20049;-47
2023/01/26 13:29:26;;;;;;;7.00;4.68;;;;;;;18.24;53.29;100833.72;5053062;28;20049;-49
2023/01/26 13:31:55;;;;;;;6.15;4.45;;;;;;;18.28;52.92;100827.16;5053164;28;20053;-47
2023/01/26 13:34:46;;;;;;;8.05;4.90;;;;;;;18.32;53.74;100828.59;5052318;28;20059;-48
2023/01/26 13:37:52;;;;;;;5.53;4.07;;;;;;;18.36;53.18;100831.88;5056444;28;20056;-48
2023/01/26 13:40:27;;;;;;;6.95;4.72;;;;;;;18.39;54.39;100828.94;5055500;28;20419;-57
2023/01/26 13:43:12;;;;;;;9.00;5.45;;;;;;;18.42;54.33;100823.31;5057500;28;20469;-55
2023/01/26 13:46:04;;;;;;;6.88;4.50;;;;;;;18.43;54.63;100828.56;5057098;28;20387;-50
2023/01/26 13:48:51;;;;;;;9.50;4.50;;;;;;;18.46;54.48;100833.66;5057213;28;20510;-52
2023/01/26 13:51:21;;;;;;;11.10;4.57;;;;;;;18.48;54.46;100828.19;5057102;28;20048;-61
2023/01/26 13:53:57;;;;;;;6.25;4.47;;;;;;;18.50;53.90;100831.59;5056964;28;20052;-59
2023/01/26 13:56:29;;;;;;;6.35;4.05;;;;;;;18.52;54.86;100824.28;5056971;28;20045;-56
2023/01/26 13:59:21;;;;;;;6.85;4.35;;;;;;;18.54;55.62;100828.53;5057134;28;20395;-48
2023/01/26 14:01:54;;;;;;;7.80;4.38;;;;;;;18.54;55.11;100827.69;5056679;28;20411;-50
2023/01/26 14:04:31;;;;;;;9.35;4.95;;;;;;;18.56;55.21;100832.94;5056860;28;20045;-50
2023/01/26 14:07:07;;;;;;;8.32;4.47;;;;;;;18.57;56.09;100829.25;5056710;28;20418;-51
2023/01/26 14:09:50;;;;;;;5.75;3.80;;;;;;;18.59;55.94;100825.44;5056763;28;20522;-51
2023/01/26 14:12:22;;;;;;;7.38;3.95;;;;;;;18.59;55.91;100824.59;5056694;28;20052;-50
2023/01/26 14:14:56;;;;;;;6.30;4.35;;;;;;;18.60;55.83;100829.88;5056660;28;20057;-51
2023/01/26 14:17:29;;;;;;;7.32;4.28;;;;;;;18.61;55.81;100826.19;5056584;28;20056;-48
2023/01/26 14:19:58;;;;;;;6.57;4.55;;;;;;;18.61;55.91;100814.63;5056772;28;20048;-59
2023/01/26 14:22:28;;;;;;;9.63;4.00;;;;;;;18.62;54.65;100814.47;5055917;28;20041;-58
2023/01/26 14:24:55;;;;;;;6.82;4.30;;;;;;;18.63;55.96;100815.31;5054581;28;20052;-55
2023/01/26 14:27:29;;;;;;;9.35;4.78;;;;;;;18.64;56.30;100817.06;5036554;28;20050;-57
2023/01/26 14:29:58;;;;;;;6.22;4.38;;;;;;;18.64;56.25;100814.38;5036167;28;20050;-50
2023/01/26 14:32:28;;;;;;;5.93;4.38;;;;;;;18.65;56.16;100816.91;5036323;28;20056;-48
2023/01/26 14:34:58;;;;;;;5.68;4.35;;;;;;;18.64;56.33;100817.91;5036154;28;20049;-47
2023/01/26 14:37:27;;;;;;;6.50;4.10;;;;;;;18.65;56.04;100810.72;5036299;28;20052;-52
2023/01/26 14:40:23;;;;;;;8.50;4.75;;;;;;;18.66;56.04;100809.72;5036221;28;20049;-48
2023/01/26 14:42:52;;;;;;;7.57;4.32;;;;;;;18.66;55.78;100818.63;5036340;28;20057;-48
2023/01/26 14:45:31;;;;;;;5.65;4.18;;;;;;;18.67;55.59;100811.41;5036055;28;20056;-48
2023/01/26 14:48:04;;;;;;;6.43;4.40;;;;;;;18.67;56.11;100811.41;5035842;28;20065;-58
2023/01/26 14:50:32;;;;;;;5.72;4.80;;;;;;;18.68;55.98;100811.31;5036378;28;20049;-51
2023/01/26 14:53:01;;;;;;;5.90;4.53;;;;;;;18.68;56.25;100808.63;5035878;28;20041;-52
2023/01/26 14:55:32;;;;;;;7.20;4.05;;;;;;;18.68;55.90;100811.31;5036079;28;20052;-50
2023/01/26 14:58:02;;;;;;;5.65;4.18;;;;;;;18.69;55.62;100806.78;5035815;28;20049;-46
2023/01/26 15:00:33;;;;;;;5.28;3.90;;;;;;;18.70;55.72;100806.69;5035874;28;20050;-52
2023/01/26 15:03:11;;;;;;;5.40;3.90;;;;;;;18.70;55.50;100805.84;5035282;28;20045;-48
2023/01/26 15:05:41;;;;;;;5.35;4.20;;;;;;;18.71;55.65;100804.84;5035675;28;20476;-52
2023/01/26 15:08:22;;;;;;;6.47;4.30;;;;;;;18.70;55.46;100806.69;5035820;28;20403;-52
2023/01/26 15:12:14;;;;;;;5.28;4.05;;;;;;;18.73;55.61;100819.84;5035846;28;20499;-50
2023/01/26 15:13:52;;;;;;;5.97;4.25;;;;;;;18.72;55.23;100804.75;5035491;28;20048;-51
2023/01/26 15:16:22;;;;;;;6.25;4.30;;;;;;;18.75;55.31;100811.66;5041362;28;20051;-51
2023/01/26 15:18:58;;;;;;;5.07;3.65;;;;;;;18.74;55.33;100812.66;5055978;28;20056;-57
2023/01/26 15:21:38;;;;;;;5.28;3.97;;;;;;;18.75;55.70;100804.47;5055685;28;20041;-58
2023/01/26 15:24:12;;;;;;;6.13;4.00;;;;;;;18.75;55.46;100806.28;5055608;28;20049;-55
2023/01/26 15:26:42;;;;;;;5.57;4.25;;;;;;;18.75;54.77;100803.59;5054755;28;20414;-50
2023/01/26 15:29:32;;;;;;;7.85;4.07;;;;;;;18.75;54.74;100807.13;5054599;28;20064;-48
2023/01/26 15:32:00;;;;;;;5.07;3.75;;;;;;;18.75;55.57;100804.47;5055323;28;20045;-52
2023/01/26 15:34:39;;;;;;;5.75;4.03;;;;;;;18.74;55.32;100808.13;5055184;28;20052;-56
2023/01/26 15:37:25;;;;;;;5.90;4.28;;;;;;;18.75;55.06;100804.47;5055171;28;20053;-54
2023/01/26 15:39:52;;;;;;;5.55;3.75;;;;;;;18.75;55.25;100812.50;5055437;28;20048;-52